Time;durP1;ratioP1;P1;durP2;ratioP2;P2;SDS_P1;SDS_P2;PMS_P1;PMS_P2;Temp;Humidity;BMP_temperature;BMP_pressure;BME280_temperature;BME280_humidity;BME280_pressure;Samples;Min_cycle;Max_cycle;Signal;HPM_P1;HPM_P2
2023/02/19 00:01:23;;;;;;;;;;;;;;;9.97;100.00;101667.81;5023478;28;19921;-66
2023/02/19 00:03:54;;;;;;;;;;;;;;;9.99;100.00;101667.69;5037081;28;20477;-66
2023/02/19 00:06:21;;;;;;;;;;;;;;;9.99;100.00;101670.31;5020498;28;19925;-66
2023/02/19 00:08:48;;;;;;;;;;;;;;;10.01;100.00;101690.22;5028006;28;19920;-67
2023/02/19 00:11:16;;;;;;;;;;;;;;;10.00;100.00;101675.44;5021593;28;19949;-67
2023/02/19 00:13:44;;;;;;;;;;;;;;;9.98;100.00;101677.38;5024737;28;19921;-65
2023/02/19 00:16:18;;;;;;;;;;;;;;;10.03;100.00;101674.38;5026933;28;19921;-65
2023/02/19 00:18:45;;;;;;;;;;;;;;;10.02;100.00;101673.53;5027450;28;20305;-66
2023/02/19 00:21:12;;;;;;;;;;;;;;;10.02;100.00;101668.28;5029079;28;19932;-66
2023/02/19 00:23:38;;;;;;;;;;;;;;;9.97;100.00;101672.22;5018673;28;20362;-66
2023/02/19 00:26:13;;;;;;;;;;;;;;;9.98;100.00;101669.50;5026001;28;19962;-65
2023/02/19 00:28:44;;;;;;;;;;;;;;;9.99;100.00;101671.16;5013720;28;20536;-66
2023/02/19 00:31:13;;;;;;;;;;;;;;;9.94;100.00;101677.72;5029467;28;19928;-65
2023/02/19 00:33:40;;;;;;;;;;;;;;;9.98;100.00;101672.13;5021595;28;20016;-66
2023/02/19 00:36:06;;;;;;;;;;;;;;;9.88;100.00;101669.41;5028761;28;19925;-66
2023/02/19 00:38:36;;;;;;;;;;;;;;;9.86;100.00;101679.16;5032443;28;20011;-66
2023/02/19 00:41:17;;;;;;;;;;;;;;;9.89;100.00;101671.03;5020105;28;19921;-66
2023/02/19 00:43:48;;;;;;;;;;;;;;;9.89;100.00;101665.81;5034423;28;20324;-65
2023/02/19 00:46:15;;;;;;;;;;;;;;;9.89;100.00;101668.41;5032263;28;19924;-67
2023/02/19 00:48:42;;;;;;;;;;;;;;;9.86;100.00;101665.25;5035718;28;19928;-66
2023/02/19 00:51:08;;;;;;;;;;;;;;;9.85;100.00;101666.19;5024553;28;19920;-68
2023/02/19 00:53:35;;;;;;;;;;;;;;;9.87;100.00;101667.72;5026306;28;19925;-67
2023/02/19 00:56:02;;;;;;;;;;;;;;;9.88;100.00;101677.25;5028378;28;19932;-67
2023/02/19 00:58:28;;;;;;;;;;;;;;;9.87;100.00;101672.13;5022904;28;19921;-66
2023/02/19 01:00:55;;;;;;;;;;;;;;;9.88;100.00;101674.63;5031743;28;19928;-66
2023/02/19 01:03:21;;;;;;;;;;;;;;;9.85;100.00;101680.09;5029469;28;20278;-67
2023/02/19 01:05:51;;;;;;;;;;;;;;;9.79;100.00;101677.16;5030905;28;20007;-66
2023/02/19 01:08:17;;;;;;;;;;;;;;;9.80;100.00;101673.56;5018681;28;19932;-66
2023/02/19 01:10:43;;;;;;;;;;;;;;;9.84;100.00;101678.44;5030833;28;19979;-66
2023/02/19 01:13:10;;;;;;;;;;;;;;;9.78;100.00;101676.31;5041887;28;19921;-67
2023/02/19 01:15:36;;;;;;;;;;;;;;;9.77;100.00;101679.06;5021640;28;20040;-67
2023/02/19 01:18:03;;;;;;;;;;;;;;;9.83;100.00;101682.00;5041539;28;19924;-66
2023/02/19 01:20:29;;;;;;;;;;;;;;;9.80;100.00;101679.66;5026410;28;20293;-66
2023/02/19 01:22:55;;;;;;;;;;;;;;;9.83;100.00;101686.44;5039536;28;20066;-66
2023/02/19 01:25:22;;;;;;;;;;;;;;;9.82;100.00;101677.75;5016780;28;19932;-68
2023/02/19 01:27:48;;;;;;;;;;;;;;;9.81;100.00;101688.34;5035299;28;19929;-67
2023/02/19 01:30:14;;;;;;;;;;;;;;;9.82;100.00;101690.84;5032001;28;20314;-67
2023/02/19 01:32:41;;;;;;;;;;;;;;;9.80;100.00;101702.38;5020206;28;20455;-66
2023/02/19 01:35:07;;;;;;;;;;;;;;;9.76;100.00;101691.31;5031240;28;19935;-67
2023/02/19 01:37:33;;;;;;;;;;;;;;;9.78;100.00;101699.03;5038456;28;19924;-67
2023/02/19 01:40:00;;;;;;;;;;;;;;;9.83;100.00;101691.66;5032509;28;20336;-66
2023/02/19 01:42:26;;;;;;;;;;;;;;;9.78;100.00;101692.03;5021122;28;19948;-68
2023/02/19 01:45:14;;;;;;;;;;;;;;;9.81;100.00;101704.88;5035629;28;20396;-67
2023/02/19 01:47:41;;;;;;;;;;;;;;;9.81;100.00;101694.41;5036441;28;20149;-66
2023/02/19 01:50:07;;;;;;;;;;;;;;;9.73;100.00;101691.56;5020960;28;19925;-66
2023/02/19 01:52:35;;;;;;;;;;;;;;;9.75;100.00;101694.88;5032197;28;20285;-66
2023/02/19 01:55:03;;;;;;;;;;;;;;;9.78;100.00;101701.66;5022102;28;20024;-66
2023/02/19 01:57:32;;;;;;;;;;;;;;;9.83;100.00;101699.53;5037086;28;20015;-67
2023/02/19 02:00:02;;;;;;;;;;;;;;;9.76;100.00;101700.94;5035177;28;19931;-67
2023/02/19 02:02:29;;;;;;;;;;;;;;;9.75;100.00;101701.91;5030565;28;19924;-68
2023/02/19 02:04:56;;;;;;;;;;;;;;;9.72;100.00;101699.53;5033213;28;19935;-68
2023/02/19 02:10:19;;;;;;;;;;;;;;;9.69;100.00;101698.00;5031118;28;19983;-68
2023/02/19 02:12:46;;;;;;;;;;;;;;;9.70;100.00;101708.34;5025383;28;20685;-68
2023/02/19 02:15:13;;;;;;;;;;;;;;;9.68;100.00;101702.41;5032834;28;19932;-68
2023/02/19 02:17:50;;;;;;;;;;;;;;;9.75;100.00;101701.91;5033325;28;19925;-68
2023/02/19 02:20:31;;;;;;;;;;;;;;;9.72;100.00;101710.81;5038454;28;19929;-67
2023/02/19 02:23:06;;;;;;;;;;;;;;;9.66;100.00;101712.16;5020624;28;20325;-68
2023/02/19 02:25:42;;;;;;;;;;;;;;;9.61;100.00;101709.06;5041317;28;19952;-68
2023/02/19 02:28:27;;;;;;;;;;;;;;;9.61;100.00;101698.56;5025610;28;19929;-67
2023/02/19 02:30:56;;;;;;;;;;;;;;;9.55;100.00;101706.09;5039592;28;19931;-68
2023/02/19 02:33:22;;;;;;;;;;;;;;;9.55;100.00;101700.84;5041925;28;19925;-67
2023/02/19 02:35:55;;;;;;;;;;;;;;;9.57;100.00;101707.63;5025675;28;19947;-68
2023/02/19 02:38:24;;;;;;;;;;;;;;;9.56;100.00;101707.75;5037467;28;19929;-67
2023/02/19 02:40:50;;;;;;;;;;;;;;;9.52;100.00;101701.91;5026863;28;20139;-67
2023/02/19 02:43:17;;;;;;;;;;;;;;;9.48;100.00;101703.91;5030496;28;20373;-68
2023/02/19 02:45:43;;;;;;;;;;;;;;;9.53;100.00;101705.38;5034492;28;20623;-68
2023/02/19 02:48:16;;;;;;;;;;;;;;;9.53;100.00;101708.00;5036692;28;19951;-67
2023/02/19 02:50:48;;;;;;;;;;;;;;;9.50;100.00;101709.03;5025443;28;19929;-68
2023/02/19 02:56:04;;;;;;;;;;;;;;;9.51;100.00;101710.72;5026290;28;19924;-67
2023/02/19 02:58:31;;;;;;;;;;;;;;;9.52;100.00;101719.41;5037127;28;19927;-67
2023/02/19 03:04:06;;;;;;;;;;;;;;;9.47;100.00;101722.38;5021624;28;19928;-69
2023/02/19 03:06:34;;;;;;;;;;;;;;;9.52;100.00;101724.66;5030823;28;19925;-68
2023/02/19 03:09:06;;;;;;;;;;;;;;;9.46;100.00;101724.16;5026481;28;19925;-68
2023/02/19 03:20:04;;;;;;;;;;;;;;;9.54;100.00;101741.06;5019315;28;19948;-67
2023/02/19 03:22:33;;;;;;;;;;;;;;;9.53;100.00;101745.50;5041358;28;20420;-67
2023/02/19 03:27:48;;;;;;;;;;;;;;;9.54;100.00;101743.69;5028394;28;19979;-68
2023/02/19 03:30:17;;;;;;;;;;;;;;;9.54;100.00;101748.94;5031963;28;20016;-68
2023/02/19 03:33:01;;;;;;;;;;;;;;;9.55;100.00;101750.63;5039396;28;20448;-68
2023/02/19 03:35:30;;;;;;;;;;;;;;;9.58;100.00;101752.97;5027686;28;20038;-67
2023/02/19 03:38:03;;;;;;;;;;;;;;;9.58;100.00;101751.19;5018844;28;19924;-68
2023/02/19 03:40:30;;;;;;;;;;;;;;;9.57;100.00;101757.41;5026753;28;20266;-67
2023/02/19 03:43:11;;;;;;;;;;;;;;;9.55;100.00;101758.47;5024030;28;20042;-67
2023/02/19 03:45:44;;;;;;;;;;;;;;;9.51;100.00;101755.25;5028435;28;19932;-66
2023/02/19 03:48:17;;;;;;;;;;;;;;;9.50;100.00;101758.81;5045980;28;20686;-65
2023/02/19 03:50:57;;;;;;;;;;;;;;;9.51;100.00;101757.88;5015903;28;19925;-65
2023/02/19 03:53:52;;;;;;;;;;;;;;;9.54;100.00;101767.25;5031977;28;19925;-66
2023/02/19 03:56:39;;;;;;;;;;;;;;;9.57;100.00;101767.88;5012324;28;19924;-65
2023/02/19 03:59:22;;;;;;;;;;;;;;;9.56;100.00;101766.19;5026553;28;19929;-65
2023/02/19 04:01:49;;;;;;;;;;;;;;;9.55;100.00;101767.16;5024138;28;20290;-65
2023/02/19 04:04:36;;;;;;;;;;;;;;;9.53;100.00;101773.47;5031879;28;19994;-65
2023/02/19 04:07:03;;;;;;;;;;;;;;;9.56;100.00;101767.97;5031746;28;20668;-67
2023/02/19 04:09:37;;;;;;;;;;;;;;;9.53;100.00;101778.72;5037988;28;19932;-65
2023/02/19 04:12:05;;;;;;;;;;;;;;;9.53;100.00;101783.94;5026352;28;20408;-66
2023/02/19 04:14:51;;;;;;;;;;;;;;;9.53;100.00;101789.19;5032707;28;20632;-65
2023/02/19 04:17:24;;;;;;;;;;;;;;;9.60;100.00;101787.75;5029657;28;20466;-66
2023/02/19 04:19:51;;;;;;;;;;;;;;;9.58;100.00;101790.47;5027102;28;19925;-66
2023/02/19 04:22:19;;;;;;;;;;;;;;;9.55;100.00;101795.97;5040960;28;19979;-66
2023/02/19 04:24:50;;;;;;;;;;;;;;;9.57;100.00;101801.09;5028892;28;19924;-66
2023/02/19 04:27:16;;;;;;;;;;;;;;;9.57;100.00;101795.88;5030517;28;19956;-65
2023/02/19 04:29:43;;;;;;;;;;;;;;;9.60;100.00;101798.22;5026140;28;19948;-66
2023/02/19 04:32:10;;;;;;;;;;;;;;;9.56;100.00;101808.09;5033491;28;19924;-66
2023/02/19 04:34:36;;;;;;;;;;;;;;;9.59;100.00;101805.25;5023682;28;19925;-66
2023/02/19 04:37:02;;;;;;;;;;;;;;;9.52;100.00;101808.47;5029329;28;19956;-66
2023/02/19 04:39:29;;;;;;;;;;;;;;;9.55;100.00;101810.84;5037396;28;19935;-67
2023/02/19 04:41:55;;;;;;;;;;;;;;;9.54;100.00;101817.03;5029153;28;20305;-67
2023/02/19 04:44:21;;;;;;;;;;;;;;;9.59;100.00;101817.53;5041205;28;19936;-67
2023/02/19 04:46:48;;;;;;;;;;;;;;;9.54;100.00;101824.88;5010258;28;19932;-66
2023/02/19 04:49:14;;;;;;;;;;;;;;;9.55;100.00;101829.19;5032778;28;19935;-66
2023/02/19 04:51:40;;;;;;;;;;;;;;;9.53;100.00;101837.16;5035000;28;19963;-66
2023/02/19 04:54:07;;;;;;;;;;;;;;;9.55;100.00;101842.28;5040817;28;20208;-66
2023/02/19 04:56:33;;;;;;;;;;;;;;;9.53;100.00;101831.91;5030719;28;19927;-66
2023/02/19 04:58:59;;;;;;;;;;;;;;;9.55;100.00;101848.34;5037263;28;19925;-66
2023/02/19 05:01:26;;;;;;;;;;;;;;;9.58;100.00;101849.91;5022234;28;19925;-66
2023/02/19 05:03:52;;;;;;;;;;;;;;;9.56;100.00;101859.66;5034736;28;20325;-67
2023/02/19 05:06:18;;;;;;;;;;;;;;;9.53;100.00;101855.50;5037637;28;19929;-66
2023/02/19 05:08:45;;;;;;;;;;;;;;;9.54;100.00;101865.00;5039049;28;19924;-66
2023/02/19 05:11:11;;;;;;;;;;;;;;;9.56;100.00;101862.28;5031032;28;19931;-67
2023/02/19 05:13:39;;;;;;;;;;;;;;;9.54;100.00;101865.00;5036225;28;19932;-66
2023/02/19 05:16:06;;;;;;;;;;;;;;;9.48;100.00;101868.09;5027441;28;19976;-66
2023/02/19 05:18:33;;;;;;;;;;;;;;;9.52;100.00;101872.16;5029467;28;20309;-66
2023/02/19 05:21:00;;;;;;;;;;;;;;;9.50;100.00;101874.88;5022890;28;19979;-66
2023/02/19 05:23:27;;;;;;;;;;;;;;;9.57;100.00;101874.44;5031335;28;19925;-67
2023/02/19 05:25:53;;;;;;;;;;;;;;;9.51;100.00;101867.88;5016613;28;19929;-66
2023/02/19 05:28:19;;;;;;;;;;;;;;;9.52;100.00;101877.38;5029381;28;19931;-66
2023/02/19 05:30:50;;;;;;;;;;;;;;;9.56;100.00;101870.13;5027633;28;20517;-67
2023/02/19 05:33:18;;;;;;;;;;;;;;;9.52;100.00;101877.38;5032872;28;19924;-65
2023/02/19 05:35:46;;;;;;;;;;;;;;;9.54;100.00;101874.66;5014126;28;20015;-66
2023/02/19 05:38:13;;;;;;;;;;;;;;;9.50;100.00;101885.34;5024641;28;19982;-66
2023/02/19 05:40:39;;;;;;;;;;;;;;;9.57;100.00;101885.75;5026902;28;19925;-66
2023/02/19 05:43:06;;;;;;;;;;;;;;;9.54;100.00;101882.50;5025480;28;19961;-66
2023/02/19 05:45:33;;;;;;;;;;;;;;;9.52;100.00;101879.16;5033763;28;19935;-66
2023/02/19 05:47:59;;;;;;;;;;;;;;;9.52;100.00;101885.25;5031725;28;19925;-65
2023/02/19 05:50:26;;;;;;;;;;;;;;;9.53;100.00;101883.47;5026507;28;19924;-66
2023/02/19 05:52:52;;;;;;;;;;;;;;;9.52;100.00;101884.41;5034825;28;19965;-66
2023/02/19 05:55:19;;;;;;;;;;;;;;;9.52;100.00;101880.00;5022216;28;20401;-66
2023/02/19 05:57:46;;;;;;;;;;;;;;;9.54;100.00;101893.81;5035196;28;19925;-66
2023/02/19 06:00:14;;;;;;;;;;;;;;;9.53;100.00;101896.56;5005174;28;19925;-65
2023/02/19 06:02:41;;;;;;;;;;;;;;;9.52;100.00;101893.09;5042113;28;19938;-66
2023/02/19 06:05:08;;;;;;;;;;;;;;;9.56;100.00;101894.53;5039308;28;20328;-66
2023/02/19 06:07:34;;;;;;;;;;;;;;;9.53;100.00;101900.03;5025179;28;19934;-67
2023/02/19 06:10:00;;;;;;;;;;;;;;;9.50;100.00;101906.31;5034704;28;20385;-66
2023/02/19 06:12:27;;;;;;;;;;;;;;;9.54;100.00;101914.78;5030059;28;19925;-66
2023/02/19 06:14:53;;;;;;;;;;;;;;;9.52;100.00;101914.06;5037860;28;19928;-66
2023/02/19 06:17:19;;;;;;;;;;;;;;;9.50;100.00;101919.41;5024204;28;19932;-65
2023/02/19 06:19:46;;;;;;;;;;;;;;;9.52;100.00;101921.09;5027678;28;20044;-67
2023/02/19 06:22:13;;;;;;;;;;;;;;;9.48;100.00;101917.84;5020726;28;20091;-66
2023/02/19 06:24:39;;;;;;;;;;;;;;;9.46;100.00;101917.94;5029624;28;19925;-66
2023/02/19 06:27:06;;;;;;;;;;;;;;;9.50;100.00;101929.03;5026596;28;19925;-66
2023/02/19 06:29:32;;;;;;;;;;;;;;;9.49;100.00;101930.84;5031540;28;19943;-66
2023/02/19 06:31:59;;;;;;;;;;;;;;;9.45;100.00;101950.34;5027105;28;20517;-66
2023/02/19 06:34:25;;;;;;;;;;;;;;;9.45;100.00;101962.63;5026310;28;19929;-67
2023/02/19 06:36:52;;;;;;;;;;;;;;;9.44;100.00;101953.91;5025691;28;19921;-67
2023/02/19 06:39:19;;;;;;;;;;;;;;;9.46;100.00;101957.25;5028414;28;19931;-66
2023/02/19 06:41:46;;;;;;;;;;;;;;;9.43;100.00;101969.75;5020226;28;20432;-66
2023/02/19 06:44:12;;;;;;;;;;;;;;;9.41;100.00;101963.75;5030051;28;19948;-67
2023/02/19 06:46:39;;;;;;;;;;;;;;;9.42;100.00;101968.06;5022626;28;19925;-67
2023/02/19 06:49:05;;;;;;;;;;;;;;;9.41;100.00;101963.75;5019542;28;19921;-66
2023/02/19 06:51:32;;;;;;;;;;;;;;;9.44;100.00;101966.16;5023404;28;20008;-66
2023/02/19 06:54:01;;;;;;;;;;;;;;;9.44;100.00;101971.41;5029051;28;20408;-67
2023/02/19 06:56:28;;;;;;;;;;;;;;;9.46;100.00;101964.25;5037039;28;19924;-65
2023/02/19 06:58:56;;;;;;;;;;;;;;;9.42;100.00;101970.69;5025618;28;19924;-65
2023/02/19 07:01:23;;;;;;;;;;;;;;;9.44;100.00;101981.88;5025639;28;19925;-66
2023/02/19 07:03:51;;;;;;;;;;;;;;;9.40;100.00;101983.88;5018456;28;19978;-66
2023/02/19 07:06:21;;;;;;;;;;;;;;;9.46;100.00;101985.22;5028171;28;20034;-66
2023/02/19 07:08:48;;;;;;;;;;;;;;;9.41;100.00;101984.69;5006189;28;20386;-65
2023/02/19 07:11:17;;;;;;;;;;;;;;;9.34;100.00;101997.41;5025691;28;19925;-66
2023/02/19 07:13:44;;;;;;;;;;;;;;;9.38;100.00;101995.41;5024587;28;20489;-66
2023/02/19 07:16:11;;;;;;;;;;;;;;;9.37;100.00;102006.81;5019269;28;20238;-66
2023/02/19 07:18:38;;;;;;;;;;;;;;;9.39;100.00;102004.94;5035701;28;20016;-66
2023/02/19 07:21:09;;;;;;;;;;;;;;;9.38;100.00;102018.97;5030028;28;19925;-66
2023/02/19 07:23:47;;;;;;;;;;;;;;;9.38;100.00;102014.56;5013237;28;19928;-67
2023/02/19 07:26:17;;;;;;;;;;;;;;;9.39;100.00;102018.88;5014873;28;20397;-66
2023/02/19 07:28:45;;;;;;;;;;;;;;;9.34;100.00;102026.22;5022038;28;20429;-67
2023/02/19 07:31:12;;;;;;;;;;;;;;;9.36;100.00;102040.03;5019472;28;19995;-67
2023/02/19 07:33:44;;;;;;;;;;;;;;;9.40;100.00;102038.03;5018850;28;19960;-66
2023/02/19 07:36:12;;;;;;;;;;;;;;;9.37;100.00;102041.72;5028678;28;19925;-66
2023/02/19 07:38:38;;;;;;;;;;;;;;;9.38;100.00;102053.03;5028596;28;19925;-65
2023/02/19 07:41:05;;;;;;;;;;;;;;;9.35;100.00;102055.84;5034199;28;19924;-68
2023/02/19 07:43:33;;;;;;;;;;;;;;;9.30;100.00;102059.63;5023938;28;19928;-67
2023/02/19 07:46:03;;;;;;;;;;;;;;;9.26;100.00;102062.59;5031315;28;19952;-68
2023/02/19 07:48:30;;;;;;;;;;;;;;;9.28;100.00;102064.13;5031248;28;20488;-67
2023/02/19 07:51:00;;;;;;;;;;;;;;;9.28;100.00;102079.84;5017561;28;20081;-67
2023/02/19 07:53:27;;;;;;;;;;;;;;;9.32;100.00;102063.94;5027825;28;20246;-66
2023/02/19 07:55:57;;;;;;;;;;;;;;;9.26;100.00;102070.44;5024244;28;19936;-67
2023/02/19 07:58:23;;;;;;;;;;;;;;;9.24;100.00;102069.72;5024082;28;19929;-68
2023/02/19 08:00:50;;;;;;;;;;;;;;;9.28;100.00;102076.41;5027104;28;20400;-66
2023/02/19 08:03:19;;;;;;;;;;;;;;;9.32;100.00;102075.25;5041590;28;20024;-66
2023/02/19 08:05:46;;;;;;;;;;;;;;;9.33;100.00;102082.16;5036122;28;19928;-68
2023/02/19 08:08:13;;;;;;;;;;;;;;;9.39;100.00;102089.59;5025783;28;19940;-66
2023/02/19 08:13:29;;;;;;;;;;;;;;;9.46;100.00;102082.13;5015093;28;20647;-65
2023/02/19 08:16:08;;;;;;;;;;;;;;;9.50;100.00;102080.97;5022487;28;19933;-66
2023/02/19 08:18:47;;;;;;;;;;;;;;;9.47;100.00;102087.25;5029640;28;19925;-66
2023/02/19 08:21:19;;;;;;;;;;;;;;;9.53;100.00;102099.09;5024714;28;19925;-66
2023/02/19 08:23:45;;;;;;;;;;;;;;;9.55;100.00;102099.81;5019406;28;20645;-66
2023/02/19 08:26:15;;;;;;;;;;;;;;;9.61;100.00;102099.38;5017061;28;20290;-67
2023/02/19 08:28:42;;;;;;;;;;;;;;;9.61;100.00;102098.56;5033584;28;19924;-66
2023/02/19 08:31:10;;;;;;;;;;;;;;;9.62;100.00;102101.03;5009320;28;19964;-66
2023/02/19 08:33:37;;;;;;;;;;;;;;;9.63;100.00;102101.91;5031175;28;19924;-66
2023/02/19 08:36:04;;;;;;;;;;;;;;;9.59;100.00;102103.06;5018709;28;19925;-65
2023/02/19 08:38:32;;;;;;;;;;;;;;;9.61;100.00;102112.47;5021956;28;20043;-67
2023/02/19 08:40:59;;;;;;;;;;;;;;;9.56;100.00;102114.56;4993496;28;20050;-66
2023/02/19 08:43:25;;;;;;;;;;;;;;;9.57;100.00;102124.13;5030944;28;19931;-66
2023/02/19 08:45:52;;;;;;;;;;;;;;;9.59;100.00;102126.63;5037520;28;19925;-66
2023/02/19 08:48:19;;;;;;;;;;;;;;;9.59;100.00;102127.47;5033984;28;19932;-65
2023/02/19 08:50:51;;;;;;;;;;;;;;;9.59;100.00;102127.47;5032163;28;20448;-65
2023/02/19 08:53:18;;;;;;;;;;;;;;;9.65;100.00;102148.00;5017418;28;19920;-65
2023/02/19 08:55:44;;;;;;;;;;;;;;;9.67;100.00;102151.34;5040050;28;19924;-65
2023/02/19 08:58:10;;;;;;;;;;;;;;;9.72;100.00;102152.78;5031996;28;20364;-66
2023/02/19 09:00:37;;;;;;;;;;;;;;;9.76;100.00;102154.25;5028320;28;20670;-66
2023/02/19 09:03:05;;;;;;;;;;;;;;;9.77;100.00;102145.47;5029276;28;20381;-65
2023/02/19 09:05:32;;;;;;;;;;;;;;;9.82;100.00;102143.34;5020191;28;20031;-66
2023/02/19 09:07:58;;;;;;;;;;;;;;;9.86;100.00;102134.34;5027761;28;19932;-66
2023/02/19 09:10:25;;;;;;;;;;;;;;;9.76;100.00;102143.78;5032061;28;19975;-66
2023/02/19 09:12:51;;;;;;;;;;;;;;;9.79;100.00;102139.16;5038089;28;19925;-67
2023/02/19 09:15:17;;;;;;;;;;;;;;;9.83;100.00;102143.22;5028799;28;19931;-66
2023/02/19 09:17:44;;;;;;;;;;;;;;;9.84;100.00;102141.44;5031492;28;19976;-66
2023/02/19 09:20:13;;;;;;;;;;;;;;;9.79;100.00;102152.25;5026830;28;19925;-65
2023/02/19 09:22:42;;;;;;;;;;;;;;;9.77;100.00;102155.94;5019707;28;19921;-65
2023/02/19 09:25:14;;;;;;;;;;;;;;;9.82;100.00;102165.16;5019561;28;20010;-66
2023/02/19 09:27:41;;;;;;;;;;;;;;;9.88;100.00;102175.19;5029146;28;19928;-66
2023/02/19 09:30:10;;;;;;;;;;;;;;;9.86;100.00;102174.47;5035171;28;19953;-66
2023/02/19 09:32:37;;;;;;;;;;;;;;;9.78;100.00;102186.44;5032186;28;20376;-68
2023/02/19 09:35:03;;;;;;;;;;;;;;;9.72;100.00;102186.84;5023895;28;19988;-67
2023/02/19 09:37:31;;;;;;;;;;;;;;;9.78;100.00;102189.03;5007702;28;20409;-67
2023/02/19 09:39:59;;;;;;;;;;;;;;;9.81;100.00;102196.72;5024456;28;20317;-66
2023/02/19 09:42:28;;;;;;;;;;;;;;;9.89;100.00;102191.75;5035481;28;19925;-67
2023/02/19 09:44:56;;;;;;;;;;;;;;;9.89;100.00;102207.47;5026605;28;19932;-67
2023/02/19 09:47:24;;;;;;;;;;;;;;;9.89;100.00;102217.97;5038679;28;20691;-66
2023/02/19 09:49:53;;;;;;;;;;;;;;;9.96;100.00;102226.22;5025596;28;19947;-67
2023/02/19 09:52:28;;;;;;;;;;;;;;;9.92;100.00;102223.00;5021702;28;19925;-67
2023/02/19 09:54:58;;;;;;;;;;;;;;;9.94;100.00;102228.13;5031155;28;20763;-66
2023/02/19 09:57:26;;;;;;;;;;;;;;;9.95;100.00;102232.44;5024404;28;20394;-66
2023/02/19 10:00:12;;;;;;;;;;;;;;;9.95;100.00;102235.88;5042864;28;19970;-67
2023/02/19 10:02:39;;;;;;;;;;;;;;;9.99;100.00;102244.38;5028755;28;19920;-66
2023/02/19 10:05:11;;;;;;;;;;;;;;;10.12;100.00;102254.84;5033804;28;19925;-66
2023/02/19 10:07:44;;;;;;;;;;;;;;;10.12;100.00;102258.31;5028047;28;19932;-66
2023/02/19 10:10:13;;;;;;;;;;;;;;;10.27;100.00;102257.22;5027083;28;19929;-67
2023/02/19 10:12:44;;;;;;;;;;;;;;;10.32;100.00;102269.19;5036136;28;19921;-68
2023/02/19 10:15:15;;;;;;;;;;;;;;;10.37;100.00;102272.31;5020420;28;20634;-68
2023/02/19 10:17:41;;;;;;;;;;;;;;;10.46;100.00;102269.88;5025652;28;19928;-67
2023/02/19 10:20:14;;;;;;;;;;;;;;;10.49;100.00;102274.91;5014865;28;20575;-67
2023/02/19 10:22:42;;;;;;;;;;;;;;;10.48;100.00;102277.63;5027069;28;19925;-67
2023/02/19 10:25:12;;;;;;;;;;;;;;;10.48;100.00;102278.47;5023246;28;19929;-66
2023/02/19 10:27:39;;;;;;;;;;;;;;;10.49;100.00;102279.31;5031356;28;19959;-66
2023/02/19 10:30:06;;;;;;;;;;;;;;;10.48;100.00;102275.00;5022387;28;20294;-67
2023/02/19 10:32:32;;;;;;;;;;;;;;;10.51;100.00;102282.66;5017311;28;20309;-66
2023/02/19 10:35:12;;;;;;;;;;;;;;;10.48;100.00;102296.00;5033426;28;19928;-66
2023/02/19 10:37:48;;;;;;;;;;;;;;;10.53;100.00;102298.31;5019900;28;19925;-66
2023/02/19 10:40:19;;;;;;;;;;;;;;;10.53;100.00;102306.19;5027946;28;19951;-66
2023/02/19 10:42:51;;;;;;;;;;;;;;;10.49;100.00;102303.75;5024805;28;19932;-66
2023/02/19 10:45:20;;;;;;;;;;;;;;;10.43;100.00;102306.81;5022783;28;20641;-66
2023/02/19 10:47:46;;;;;;;;;;;;;;;10.41;100.00;102321.00;5017593;28;20404;-67
2023/02/19 10:50:28;;;;;;;;;;;;;;;10.40;100.00;102328.03;5026185;28;19928;-67
2023/02/19 10:52:56;;;;;;;;;;;;;;;10.25;100.00;102319.44;5030991;28;20382;-67
2023/02/19 10:55:24;;;;;;;;;;;;;;;10.28;100.00;102319.19;5027749;28;20396;-67
2023/02/19 10:57:51;;;;;;;;;;;;;;;10.34;100.00;102315.34;5030479;28;19935;-68
2023/02/19 11:00:21;;;;;;;;;;;;;;;10.50;100.00;102320.34;5014797;28;19932;-66
2023/02/19 11:02:47;;;;;;;;;;;;;;;10.52;100.00;102321.06;5027619;28;19990;-66
2023/02/19 11:05:16;;;;;;;;;;;;;;;10.64;100.00;102320.22;5018858;28;19921;-66
2023/02/19 11:07:50;;;;;;;;;;;;;;;10.57;100.00;102312.88;5029272;28;19925;-66
2023/02/19 11:10:39;;;;;;;;;;;;;;;10.46;100.00;102303.97;5024149;28;19927;-66
2023/02/19 11:13:06;;;;;;;;;;;;;;;10.58;100.00;102298.81;5026225;28;19928;-67
2023/02/19 11:15:33;;;;;;;;;;;;;;;10.54;100.00;102287.69;5021738;28;19921;-65
2023/02/19 11:18:11;;;;;;;;;;;;;;;10.53;100.00;102293.06;5022766;28;19940;-65
2023/02/19 11:20:45;;;;;;;;;;;;;;;10.53;100.00;102295.69;5025031;28;19925;-65
2023/02/19 11:23:13;;;;;;;;;;;;;;;10.52;100.00;102299.25;5022452;28;19925;-64
2023/02/19 11:25:44;;;;;;;;;;;;;;;10.61;100.00;102301.22;5026252;28;19936;-65
2023/02/19 11:28:30;;;;;;;;;;;;;;;10.68;100.00;102299.81;5015107;28;19936;-65
2023/02/19 11:31:11;;;;;;;;;;;;;;;10.73;100.00;102294.25;5025933;28;19924;-65
2023/02/19 11:34:01;;;;;;;;;;;;;;;10.78;100.00;102298.22;5027323;28;19924;-65
2023/02/19 11:36:30;;;;;;;;;;;;;;;10.84;100.00;102305.63;5025092;28;20256;-67
2023/02/19 11:38:57;;;;;;;;;;;;;;;10.80;100.00;102298.94;5021577;28;20412;-64
2023/02/19 11:41:36;;;;;;;;;;;;;;;10.84;100.00;102308.25;5015939;28;19924;-66
2023/02/19 11:44:06;;;;;;;;;;;;;;;10.76;100.00;102309.75;5021993;28;20333;-66
2023/02/19 11:46:47;;;;;;;;;;;;;;;10.84;100.00;102317.94;5024054;28;19925;-67
2023/02/19 11:49:32;;;;;;;;;;;;;;;10.81;100.00;102313.72;5023441;28;19975;-66
2023/02/19 11:52:17;;;;;;;;;;;;;;;10.85;100.00;102319.59;5026277;28;20364;-66
2023/02/19 11:54:51;;;;;;;;;;;;;;;10.86;100.00;102319.50;5024964;28;20382;-66
2023/02/19 11:57:26;;;;;;;;;;;;;;;10.89;100.00;102328.91;5014605;28;19932;-66
2023/02/19 12:00:16;;;;;;;;;;;;;;;10.95;100.00;102325.84;5028209;28;20449;-66
2023/02/19 12:02:46;;;;;;;;;;;;;;;10.87;100.00;102328.19;5026296;28;20320;-67
2023/02/19 12:05:25;;;;;;;;;;;;;;;10.80;100.00;102324.31;5028390;28;20023;-65
2023/02/19 12:08:14;;;;;;;;;;;;;;;10.83;100.00;102318.88;5021291;28;19925;-69
2023/02/19 12:11:03;;;;;;;;;;;;;;;10.82;100.00;102319.81;5017637;28;19955;-66
2023/02/19 12:13:48;;;;;;;;;;;;;;;10.80;100.00;102329.56;5030287;28;20714;-67
2023/02/19 12:16:14;;;;;;;;;;;;;;;10.75;100.00;102329.09;5020236;28;20019;-67
2023/02/19 12:18:56;;;;;;;;;;;;;;;10.70;100.00;102321.53;5029576;28;19925;-66
2023/02/19 12:21:43;;;;;;;;;;;;;;;10.61;100.00;102320.41;5021276;28;19925;-67
2023/02/19 12:24:24;;;;;;;;;;;;;;;10.56;100.00;102327.78;5022202;28;20050;-66
2023/02/19 12:27:02;;;;;;;;;;;;;;;10.47;100.00;102334.53;5028353;28;20022;-66
2023/02/19 12:29:35;;;;;;;;;;;;;;;10.41;100.00;102331.50;5037516;28;19925;-68
2023/02/19 12:32:30;;;;;;;;;;;;;;;10.33;100.00;102328.56;5032043;28;20526;-67
2023/02/19 12:35:15;;;;;;;;;;;;;;;10.28;100.00;102331.47;5043221;28;20007;-67
2023/02/19 12:37:47;;;;;;;;;;;;;;;10.28;100.00;102332.31;5002391;28;19929;-68
2023/02/19 12:40:25;;;;;;;;;;;;;;;10.24;100.00;102327.41;5032350;28;19925;-67
2023/02/19 12:42:55;;;;;;;;;;;;;;;10.17;100.00;102326.13;5042762;28;19951;-67
2023/02/19 12:45:25;;;;;;;;;;;;;;;10.16;100.00;102330.56;5036774;28;19925;-67
2023/02/19 12:48:00;;;;;;;;;;;;;;;10.14;100.00;102340.31;5038058;28;19925;-67
2023/02/19 12:50:27;;;;;;;;;;;;;;;10.09;100.00;102343.25;5027338;28;20019;-66
2023/02/19 12:53:01;;;;;;;;;;;;;;;10.21;100.00;102348.56;5028986;28;19925;-67
2023/02/19 12:55:36;;;;;;;;;;;;;;;10.20;100.00;102344.28;5019783;28;19935;-66
2023/02/19 12:58:05;;;;;;;;;;;;;;;10.26;100.00;102347.31;5044386;28;19925;-66
2023/02/19 13:00:38;;;;;;;;;;;;;;;10.29;100.00;102356.78;5025288;28;19925;-66
2023/02/19 13:03:27;;;;;;;;;;;;;;;10.30;100.00;102353.22;5046521;28;20344;-67
2023/02/19 13:06:00;;;;;;;;;;;;;;;10.28;100.00;102350.66;5015954;28;19932;-66
2023/02/19 13:08:26;;;;;;;;;;;;;;;10.27;100.00;102359.50;5022541;28;19931;-66
2023/02/19 13:11:00;;;;;;;;;;;;;;;10.14;100.00;102361.28;5027080;28;19921;-66